createdAt,value
2022-11-25T13:16:09.850Z,92.20
2022-11-25T13:18:42.318Z,94.60
2022-11-25T13:21:14.024Z,95.50
2022-11-25T13:23:49.343Z,95.40
2022-11-25T13:26:29.022Z,95.50
2022-11-25T13:28:57.399Z,95.90
2022-11-25T13:31:31.850Z,95.80
2022-11-25T13:33:58.613Z,95.80
2022-11-25T13:36:43.948Z,96.10
2022-11-25T13:39:28.770Z,96.20
2022-11-25T13:42:16.711Z,96.30
2022-11-25T13:44:53.914Z,96.60
2022-11-25T13:47:42.849Z,96.90
2022-11-25T13:50:20.468Z,96.90
2022-11-25T13:53:03.224Z,97.00
2022-11-25T13:55:40.395Z,97.00
2022-11-25T13:58:10.221Z,97.00
2022-11-25T14:00:36.918Z,97.20
2022-11-25T14:03:19.895Z,97.20
2022-11-25T14:06:18.378Z,97.50
2022-11-25T14:09:05.004Z,97.50
2022-11-25T14:12:04.590Z,97.40
2022-11-25T14:15:02.360Z,97.40
2022-11-25T14:17:56.108Z,97.30
2022-11-25T14:20:28.451Z,97.50
2022-11-25T14:23:35.650Z,97.40
2022-11-25T14:26:27.053Z,97.60
2022-11-25T14:29:05.207Z,97.60
2022-11-25T14:31:53.560Z,97.80
2022-11-25T14:34:24.555Z,98.00
2022-11-25T14:37:00.734Z,97.90
2022-11-25T14:39:58.311Z,98.10
2022-11-25T14:42:35.403Z,98.20
2022-11-25T14:45:03.222Z,98.30
2022-11-25T14:47:39.163Z,98.30
2022-11-25T14:53:10.018Z,98.40
2022-11-25T14:55:38.274Z,98.40
2022-11-25T14:58:05.186Z,98.40
2022-11-25T15:00:32.020Z,98.40
2022-11-25T15:03:06.404Z,98.40
2022-11-25T15:05:39.041Z,98.60
2022-11-25T15:08:17.885Z,98.60
2022-11-25T15:11:00.431Z,98.60
2022-11-25T15:13:41.324Z,98.80
2022-11-25T15:16:16.809Z,98.80
2022-11-25T15:18:58.829Z,98.80
2022-11-25T15:22:07.036Z,99.00
2022-11-25T15:24:33.366Z,99.10
2022-11-25T15:27:02.824Z,99.10
2022-11-25T15:29:31.405Z,99.20
2022-11-25T15:32:00.104Z,99.30
2022-11-25T15:34:29.785Z,99.60
2022-11-25T15:37:01.042Z,99.60
2022-11-25T15:39:27.995Z,99.90
2022-11-25T15:42:24.652Z,99.90
2022-11-25T15:45:05.300Z,99.90
2022-11-25T15:47:36.783Z,99.90
2022-11-25T15:50:20.524Z,99.90
2022-11-25T15:52:56.542Z,99.90
2022-11-25T15:55:38.894Z,99.90
2022-11-25T15:58:21.116Z,99.90
2022-11-25T16:01:20.015Z,99.90
2022-11-25T16:03:48.119Z,99.90
2022-11-25T16:06:28.637Z,99.90
2022-11-25T16:09:01.698Z,99.90
2022-11-25T16:11:35.670Z,99.90
2022-11-25T16:14:28.970Z,99.90
2022-11-25T16:17:07.677Z,99.90
2022-11-25T16:19:41.547Z,99.90
2022-11-25T16:22:18.861Z,99.90
2022-11-25T16:25:01.748Z,99.90
2022-11-25T16:27:29.939Z,99.90
2022-11-25T16:30:05.705Z,99.90
2022-11-25T16:32:34.307Z,99.90
2022-11-25T16:35:16.724Z,99.90
2022-11-25T16:37:48.754Z,99.90
2022-11-25T16:40:18.475Z,99.90
2022-11-25T16:42:50.161Z,99.90
2022-11-25T16:45:36.588Z,99.90
2022-11-25T16:48:21.058Z,99.90
2022-11-25T16:50:48.919Z,99.90
2022-11-25T16:53:15.871Z,99.90
2022-11-25T16:55:45.433Z,99.90
2022-11-25T16:58:32.563Z,99.90
2022-11-25T17:00:59.350Z,99.90
2022-11-25T17:03:26.694Z,99.90
2022-11-25T17:05:55.112Z,99.90
2022-11-25T17:08:22.381Z,99.90
2022-11-25T17:10:49.819Z,99.90
2022-11-25T17:13:24.055Z,99.90
2022-11-25T17:15:51.007Z,99.90
2022-11-25T17:18:19.184Z,99.90
2022-11-25T17:20:46.861Z,99.90
2022-11-25T17:23:17.005Z,99.90
2022-11-25T17:25:48.684Z,99.90
2022-11-25T17:28:20.685Z,99.90
2022-11-25T17:30:48.503Z,99.90
2022-11-25T17:33:18.756Z,99.90
2022-11-25T17:35:48.434Z,99.90
2022-11-25T17:38:20.814Z,99.90
2022-11-25T17:40:51.212Z,99.90
2022-11-25T17:43:20.116Z,99.90
2022-11-25T17:45:47.594Z,99.90
2022-11-25T17:48:18.275Z,99.90
2022-11-25T17:50:46.830Z,99.90
2022-11-25T17:53:13.681Z,99.90
2022-11-25T17:55:41.783Z,99.90
2022-11-25T17:58:10.570Z,99.90
2022-11-25T18:00:39.632Z,99.90
2022-11-25T18:03:14.228Z,99.90
2022-11-25T18:05:41.233Z,99.90
2022-11-25T18:08:08.440Z,99.90
2022-11-25T18:10:35.474Z,99.90
2022-11-25T18:13:02.942Z,99.90
2022-11-25T18:15:33.959Z,99.90
2022-11-25T18:18:11.209Z,99.90
2022-11-25T18:20:38.013Z,99.90
2022-11-25T18:23:09.550Z,99.90
2022-11-25T18:25:36.468Z,99.90
2022-11-25T18:28:04.567Z,99.90
2022-11-25T18:30:34.540Z,99.90
2022-11-25T18:33:02.179Z,99.90
2022-11-25T18:35:36.657Z,99.90
2022-11-25T18:38:04.667Z,99.90
2022-11-25T18:40:32.233Z,99.90
2022-11-25T18:43:02.523Z,99.90
2022-11-25T18:45:34.237Z,99.90
2022-11-25T18:48:01.097Z,99.90
2022-11-25T18:50:28.431Z,99.90
2022-11-25T18:52:55.281Z,99.90
2022-11-25T18:55:23.485Z,99.90
2022-11-25T18:57:52.059Z,99.90
2022-11-25T19:00:33.032Z,99.90
2022-11-25T19:03:00.378Z,99.90
2022-11-25T19:05:32.087Z,99.90
2022-11-25T19:07:58.983Z,99.90
2022-11-25T19:10:31.216Z,99.90
2022-11-25T19:13:01.858Z,99.90
2022-11-25T19:15:28.831Z,99.90
2022-11-25T19:18:01.810Z,99.90
2022-11-25T19:20:30.085Z,99.90
2022-11-25T19:23:00.830Z,99.90
2022-11-25T19:25:28.446Z,99.90
2022-11-25T19:27:58.818Z,99.90
2022-11-25T19:30:31.136Z,99.90
2022-11-25T19:33:01.323Z,99.90
2022-11-25T19:35:37.990Z,99.90
2022-11-25T19:38:25.185Z,99.90
2022-11-25T19:40:53.906Z,99.90
2022-11-25T19:43:22.600Z,99.90
2022-11-25T19:45:50.374Z,99.90
2022-11-25T19:48:19.618Z,99.90
2022-11-25T19:50:49.302Z,99.90
2022-11-25T19:53:21.410Z,99.90
2022-11-25T19:55:48.813Z,99.90
2022-11-25T19:58:15.769Z,99.90
2022-11-25T20:00:44.164Z,99.90
2022-11-25T20:03:31.610Z,99.90
2022-11-25T20:05:58.933Z,99.90
2022-11-25T20:08:28.772Z,99.90
2022-11-25T20:10:56.750Z,99.90
2022-11-25T20:13:25.821Z,99.90
2022-11-25T20:15:53.771Z,99.90
2022-11-25T20:18:23.924Z,99.90
2022-11-25T20:21:01.496Z,99.90
2022-11-25T20:23:43.929Z,99.90
2022-11-25T20:26:37.698Z,99.90
2022-11-25T20:29:23.595Z,99.90
2022-11-25T20:31:56.008Z,99.90
2022-11-25T20:34:22.914Z,99.90
2022-11-25T20:36:49.801Z,99.90
2022-11-25T20:39:19.309Z,99.90
2022-11-25T20:41:52.965Z,99.90
2022-11-25T20:44:20.803Z,99.90
2022-11-25T20:46:48.086Z,99.90
2022-11-25T20:49:28.224Z,99.90
2022-11-25T20:51:56.739Z,99.90
2022-11-25T20:54:26.158Z,99.90
2022-11-25T20:56:53.026Z,99.90
2022-11-25T20:59:23.544Z,99.90
2022-11-25T21:01:51.457Z,99.90
2022-11-25T21:04:18.456Z,99.90
2022-11-25T21:06:45.507Z,99.90
2022-11-25T21:09:19.543Z,99.90
2022-11-25T21:11:48.057Z,99.90
2022-11-25T21:14:18.114Z,99.90
2022-11-25T21:16:46.090Z,99.90
2022-11-25T21:19:13.035Z,99.90
2022-11-25T21:21:44.361Z,99.90
2022-11-25T21:24:22.992Z,99.90
2022-11-25T21:26:50.581Z,99.90
2022-11-25T21:31:45.630Z,99.90
2022-11-25T21:34:13.793Z,99.90
2022-11-25T21:36:43.052Z,99.90
2022-11-25T21:39:30.273Z,99.90
2022-11-25T21:42:02.615Z,99.90
2022-11-25T21:44:39.843Z,99.90
2022-11-25T21:47:15.446Z,99.90
2022-11-25T21:49:42.738Z,99.90
2022-11-25T21:52:10.296Z,99.90
2022-11-25T21:54:37.233Z,99.90
2022-11-25T21:57:04.473Z,99.90
2022-11-25T21:59:32.151Z,99.90
2022-11-25T22:01:58.993Z,99.90
2022-11-25T22:04:25.887Z,99.90
2022-11-25T22:06:54.080Z,99.90
2022-11-25T22:09:20.939Z,99.90
2022-11-25T22:11:50.473Z,99.90
2022-11-25T22:14:34.495Z,99.90
2022-11-25T22:17:05.168Z,99.90
2022-11-25T22:19:32.878Z,99.90
2022-11-25T22:21:59.847Z,99.90
2022-11-25T22:24:26.840Z,99.90
2022-11-25T22:26:57.713Z,99.90
2022-11-25T22:29:31.673Z,99.90
2022-11-25T22:31:58.570Z,99.90
2022-11-25T22:34:25.584Z,99.90
2022-11-25T22:36:52.577Z,99.90
2022-11-25T22:39:25.398Z,99.90
2022-11-25T22:42:02.810Z,99.90
2022-11-25T22:44:40.177Z,99.90
2022-11-25T22:47:07.794Z,99.90
2022-11-25T22:49:45.338Z,99.90
2022-11-25T22:52:25.428Z,99.90
2022-11-25T22:54:52.572Z,99.90
2022-11-25T22:57:19.784Z,99.90
2022-11-25T22:59:46.785Z,99.90
2022-11-25T23:02:28.426Z,99.90
2022-11-25T23:04:58.169Z,99.90
2022-11-25T23:07:25.591Z,99.90
2022-11-25T23:09:52.748Z,99.90
2022-11-25T23:12:19.867Z,99.90
2022-11-25T23:14:46.724Z,99.90
2022-11-25T23:17:25.332Z,99.90
2022-11-25T23:19:53.187Z,99.90
2022-11-25T23:22:20.345Z,99.90
2022-11-25T23:24:48.989Z,99.90
2022-11-25T23:27:16.367Z,99.90
2022-11-25T23:29:45.558Z,99.90
2022-11-25T23:32:19.718Z,99.90
2022-11-25T23:34:50.020Z,99.90
2022-11-25T23:37:16.907Z,99.90
2022-11-25T23:39:50.641Z,99.90
2022-11-25T23:42:19.462Z,99.90
2022-11-25T23:44:46.772Z,99.90
2022-11-25T23:47:18.798Z,99.90
2022-11-25T23:49:50.309Z,99.90
2022-11-25T23:52:23.067Z,99.90
2022-11-25T23:54:51.480Z,99.90
2022-11-25T23:57:23.140Z,99.90
2022-11-25T23:59:51.495Z,99.90
